sensor_id;sensor_type;location;lat;lon;timestamp;P1;durP1;ratioP1;P2;durP2;ratioP2
70558;SDS011;58108;48.094;11.838;2024-02-28T00:02:09;19.25;;;6.10;;
70558;SDS011;58108;48.094;11.838;2024-02-28T00:04:35;15.73;;;5.53;;
70558;SDS011;58108;48.094;11.838;2024-02-28T00:07:00;16.33;;;6.00;;
70558;SDS011;58108;48.094;11.838;2024-02-28T00:09:26;17.23;;;6.57;;
70558;SDS011;58108;48.094;11.838;2024-02-28T00:11:51;19.90;;;7.67;;
70558;SDS011;58108;48.094;11.838;2024-02-28T00:14:17;21.20;;;7.00;;
70558;SDS011;58108;48.094;11.838;2024-02-28T00:16:43;20.35;;;8.10;;
70558;SDS011;58108;48.094;11.838;2024-02-28T00:19:09;12.87;;;5.07;;
70558;SDS011;58108;48.094;11.838;2024-02-28T00:21:39;21.75;;;7.40;;
70558;SDS011;58108;48.094;11.838;2024-02-28T00:24:06;20.45;;;7.55;;
70558;SDS011;58108;48.094;11.838;2024-02-28T00:26:32;21.55;;;7.65;;
70558;SDS011;58108;48.094;11.838;2024-02-28T00:28:57;24.73;;;8.57;;
70558;SDS011;58108;48.094;11.838;2024-02-28T00:31:23;27.65;;;9.57;;
70558;SDS011;58108;48.094;11.838;2024-02-28T00:33:49;22.30;;;8.68;;
70558;SDS011;58108;48.094;11.838;2024-02-28T00:36:14;20.42;;;7.50;;
70558;SDS011;58108;48.094;11.838;2024-02-28T00:38:43;17.30;;;6.33;;
70558;SDS011;58108;48.094;11.838;2024-02-28T00:41:08;16.42;;;5.82;;
70558;SDS011;58108;48.094;11.838;2024-02-28T00:43:34;17.33;;;5.17;;
70558;SDS011;58108;48.094;11.838;2024-02-28T00:46:00;17.05;;;5.38;;
70558;SDS011;58108;48.094;11.838;2024-02-28T00:48:25;17.63;;;6.20;;
70558;SDS011;58108;48.094;11.838;2024-02-28T00:50:52;18.58;;;6.88;;
70558;SDS011;58108;48.094;11.838;2024-02-28T00:53:18;18.00;;;7.47;;
70558;SDS011;58108;48.094;11.838;2024-02-28T00:55:43;20.42;;;7.93;;
70558;SDS011;58108;48.094;11.838;2024-02-28T00:58:10;21.43;;;7.13;;
70558;SDS011;58108;48.094;11.838;2024-02-28T01:00:35;18.27;;;7.07;;
70558;SDS011;58108;48.094;11.838;2024-02-28T01:03:01;20.58;;;7.97;;
70558;SDS011;58108;48.094;11.838;2024-02-28T01:05:30;19.63;;;7.57;;
70558;SDS011;58108;48.094;11.838;2024-02-28T01:07:56;20.23;;;7.90;;
70558;SDS011;58108;48.094;11.838;2024-02-28T01:10:22;21.53;;;7.83;;
70558;SDS011;58108;48.094;11.838;2024-02-28T01:12:48;17.85;;;6.63;;
70558;SDS011;58108;48.094;11.838;2024-02-28T01:15:13;18.05;;;6.60;;
70558;SDS011;58108;48.094;11.838;2024-02-28T01:17:39;15.37;;;5.50;;
70558;SDS011;58108;48.094;11.838;2024-02-28T01:20:05;10.37;;;4.10;;
70558;SDS011;58108;48.094;11.838;2024-02-28T01:22:32;15.57;;;5.80;;
70558;SDS011;58108;48.094;11.838;2024-02-28T01:24:58;14.00;;;4.93;;
70558;SDS011;58108;48.094;11.838;2024-02-28T01:27:24;14.83;;;5.70;;
70558;SDS011;58108;48.094;11.838;2024-02-28T01:29:49;20.63;;;6.70;;
70558;SDS011;58108;48.094;11.838;2024-02-28T01:32:15;21.73;;;7.70;;
70558;SDS011;58108;48.094;11.838;2024-02-28T01:34:40;22.43;;;7.60;;
70558;SDS011;58108;48.094;11.838;2024-02-28T01:37:06;20.70;;;7.97;;
70558;SDS011;58108;48.094;11.838;2024-02-28T01:39:31;18.25;;;6.72;;
70558;SDS011;58108;48.094;11.838;2024-02-28T01:41:57;27.33;;;9.27;;
70558;SDS011;58108;48.094;11.838;2024-02-28T01:44:22;27.13;;;9.30;;
70558;SDS011;58108;48.094;11.838;2024-02-28T01:46:48;26.50;;;9.90;;
70558;SDS011;58108;48.094;11.838;2024-02-28T01:49:13;23.00;;;8.70;;
70558;SDS011;58108;48.094;11.838;2024-02-28T01:51:41;21.48;;;7.47;;
70558;SDS011;58108;48.094;11.838;2024-02-28T01:54:07;23.33;;;8.40;;
70558;SDS011;58108;48.094;11.838;2024-02-28T01:56:33;18.80;;;7.22;;
70558;SDS011;58108;48.094;11.838;2024-02-28T01:58:59;25.30;;;8.98;;
70558;SDS011;58108;48.094;11.838;2024-02-28T02:01:26;24.05;;;8.48;;
70558;SDS011;58108;48.094;11.838;2024-02-28T02:03:53;21.60;;;8.32;;
70558;SDS011;58108;48.094;11.838;2024-02-28T02:06:19;20.65;;;8.00;;
70558;SDS011;58108;48.094;11.838;2024-02-28T02:08:45;20.20;;;7.20;;
70558;SDS011;58108;48.094;11.838;2024-02-28T02:11:11;17.88;;;5.85;;
70558;SDS011;58108;48.094;11.838;2024-02-28T02:13:52;16.73;;;7.07;;
70558;SDS011;58108;48.094;11.838;2024-02-28T02:16:18;17.40;;;7.05;;
70558;SDS011;58108;48.094;11.838;2024-02-28T02:18:47;18.13;;;7.47;;
70558;SDS011;58108;48.094;11.838;2024-02-28T02:21:15;21.15;;;7.65;;
70558;SDS011;58108;48.094;11.838;2024-02-28T02:23:43;18.63;;;7.25;;
70558;SDS011;58108;48.094;11.838;2024-02-28T02:26:08;21.98;;;7.80;;
70558;SDS011;58108;48.094;11.838;2024-02-28T02:28:34;22.77;;;7.77;;
70558;SDS011;58108;48.094;11.838;2024-02-28T02:30:59;21.57;;;8.33;;
70558;SDS011;58108;48.094;11.838;2024-02-28T02:33:25;23.88;;;8.70;;
70558;SDS011;58108;48.094;11.838;2024-02-28T02:35:51;23.97;;;8.03;;
70558;SDS011;58108;48.094;11.838;2024-02-28T02:38:18;15.52;;;5.97;;
70558;SDS011;58108;48.094;11.838;2024-02-28T02:40:43;22.27;;;8.20;;
70558;SDS011;58108;48.094;11.838;2024-02-28T02:43:13;14.60;;;5.95;;
70558;SDS011;58108;48.094;11.838;2024-02-28T02:45:38;21.60;;;8.33;;
70558;SDS011;58108;48.094;11.838;2024-02-28T02:48:04;23.23;;;8.20;;
70558;SDS011;58108;48.094;11.838;2024-02-28T02:50:30;20.08;;;7.90;;
70558;SDS011;58108;48.094;11.838;2024-02-28T02:52:55;21.85;;;8.10;;
70558;SDS011;58108;48.094;11.838;2024-02-28T02:55:21;23.85;;;8.63;;
70558;SDS011;58108;48.094;11.838;2024-02-28T02:57:46;24.23;;;8.07;;
70558;SDS011;58108;48.094;11.838;2024-02-28T03:00:12;22.33;;;8.33;;
70558;SDS011;58108;48.094;11.838;2024-02-28T03:02:37;19.55;;;7.50;;
70558;SDS011;58108;48.094;11.838;2024-02-28T03:05:05;21.38;;;8.32;;
70558;SDS011;58108;48.094;11.838;2024-02-28T03:07:31;22.13;;;8.48;;
70558;SDS011;58108;48.094;11.838;2024-02-28T03:09:57;23.88;;;8.50;;
70558;SDS011;58108;48.094;11.838;2024-02-28T03:12:23;21.80;;;8.27;;
70558;SDS011;58108;48.094;11.838;2024-02-28T03:14:49;21.20;;;8.33;;
70558;SDS011;58108;48.094;11.838;2024-02-28T03:17:14;23.52;;;8.65;;
70558;SDS011;58108;48.094;11.838;2024-02-28T03:19:42;25.15;;;8.60;;
70558;SDS011;58108;48.094;11.838;2024-02-28T03:22:08;30.30;;;9.65;;
70558;SDS011;58108;48.094;11.838;2024-02-28T03:24:33;24.48;;;9.52;;
70558;SDS011;58108;48.094;11.838;2024-02-28T03:27:02;24.70;;;9.82;;
70558;SDS011;58108;48.094;11.838;2024-02-28T03:29:28;27.53;;;9.83;;
70558;SDS011;58108;48.094;11.838;2024-02-28T03:31:54;21.70;;;7.65;;
70558;SDS011;58108;48.094;11.838;2024-02-28T03:34:19;26.70;;;10.30;;
70558;SDS011;58108;48.094;11.838;2024-02-28T03:36:45;29.30;;;9.50;;
70558;SDS011;58108;48.094;11.838;2024-02-28T03:39:11;28.30;;;9.93;;
70558;SDS011;58108;48.094;11.838;2024-02-28T03:41:37;30.45;;;10.23;;
70558;SDS011;58108;48.094;11.838;2024-02-28T03:44:03;27.20;;;9.98;;
70558;SDS011;58108;48.094;11.838;2024-02-28T03:46:29;29.13;;;10.45;;
70558;SDS011;58108;48.094;11.838;2024-02-28T03:48:55;27.03;;;9.47;;
70558;SDS011;58108;48.094;11.838;2024-02-28T03:51:20;27.40;;;9.98;;
70558;SDS011;58108;48.094;11.838;2024-02-28T03:53:46;28.35;;;10.30;;
70558;SDS011;58108;48.094;11.838;2024-02-28T03:56:11;27.27;;;9.87;;
70558;SDS011;58108;48.094;11.838;2024-02-28T03:58:37;25.20;;;9.13;;
70558;SDS011;58108;48.094;11.838;2024-02-28T04:01:02;25.75;;;8.55;;
70558;SDS011;58108;48.094;11.838;2024-02-28T04:03:28;29.35;;;9.90;;
70558;SDS011;58108;48.094;11.838;2024-02-28T04:05:54;28.83;;;9.33;;
70558;SDS011;58108;48.094;11.838;2024-02-28T04:08:20;29.20;;;10.90;;
70558;SDS011;58108;48.094;11.838;2024-02-28T04:10:45;30.95;;;9.95;;
70558;SDS011;58108;48.094;11.838;2024-02-28T04:13:11;27.47;;;9.37;;
70558;SDS011;58108;48.094;11.838;2024-02-28T04:15:36;31.00;;;10.20;;
70558;SDS011;58108;48.094;11.838;2024-02-28T04:18:03;28.40;;;9.73;;
70558;SDS011;58108;48.094;11.838;2024-02-28T04:20:29;27.48;;;9.18;;
70558;SDS011;58108;48.094;11.838;2024-02-28T04:22:54;31.10;;;10.03;;
70558;SDS011;58108;48.094;11.838;2024-02-28T04:25:20;32.00;;;9.90;;
70558;SDS011;58108;48.094;11.838;2024-02-28T04:27:45;29.27;;;9.83;;
70558;SDS011;58108;48.094;11.838;2024-02-28T04:30:12;29.20;;;10.40;;
70558;SDS011;58108;48.094;11.838;2024-02-28T04:32:38;29.23;;;9.63;;
70558;SDS011;58108;48.094;11.838;2024-02-28T04:35:03;28.85;;;9.93;;
70558;SDS011;58108;48.094;11.838;2024-02-28T04:37:29;32.50;;;9.97;;
70558;SDS011;58108;48.094;11.838;2024-02-28T04:39:54;36.38;;;10.40;;
70558;SDS011;58108;48.094;11.838;2024-02-28T04:42:20;29.00;;;9.90;;
70558;SDS011;58108;48.094;11.838;2024-02-28T04:44:45;28.53;;;10.03;;
70558;SDS011;58108;48.094;11.838;2024-02-28T04:47:11;27.80;;;9.03;;
70558;SDS011;58108;48.094;11.838;2024-02-28T04:49:37;26.67;;;10.85;;
70558;SDS011;58108;48.094;11.838;2024-02-28T04:52:04;30.70;;;10.15;;
70558;SDS011;58108;48.094;11.838;2024-02-28T04:54:31;26.33;;;8.83;;
70558;SDS011;58108;48.094;11.838;2024-02-28T04:56:56;27.98;;;9.00;;
70558;SDS011;58108;48.094;11.838;2024-02-28T04:59:22;28.57;;;9.60;;
70558;SDS011;58108;48.094;11.838;2024-02-28T05:01:47;28.60;;;10.00;;
70558;SDS011;58108;48.094;11.838;2024-02-28T05:04:13;23.37;;;7.87;;
70558;SDS011;58108;48.094;11.838;2024-02-28T05:06:39;26.20;;;8.77;;
70558;SDS011;58108;48.094;11.838;2024-02-28T05:09:05;35.17;;;10.67;;
70558;SDS011;58108;48.094;11.838;2024-02-28T05:11:30;27.67;;;9.52;;
70558;SDS011;58108;48.094;11.838;2024-02-28T05:13:56;30.20;;;10.00;;
70558;SDS011;58108;48.094;11.838;2024-02-28T05:16:21;31.17;;;10.53;;
70558;SDS011;58108;48.094;11.838;2024-02-28T05:18:47;30.48;;;10.32;;
70558;SDS011;58108;48.094;11.838;2024-02-28T05:21:12;34.37;;;10.60;;
70558;SDS011;58108;48.094;11.838;2024-02-28T05:23:42;31.42;;;10.63;;
70558;SDS011;58108;48.094;11.838;2024-02-28T05:26:07;29.50;;;10.32;;
70558;SDS011;58108;48.094;11.838;2024-02-28T05:28:33;30.37;;;11.00;;
70558;SDS011;58108;48.094;11.838;2024-02-28T05:31:03;32.78;;;10.45;;
70558;SDS011;58108;48.094;11.838;2024-02-28T05:33:46;33.55;;;11.10;;
70558;SDS011;58108;48.094;11.838;2024-02-28T05:36:11;34.87;;;10.83;;
70558;SDS011;58108;48.094;11.838;2024-02-28T05:38:37;33.83;;;11.27;;
70558;SDS011;58108;48.094;11.838;2024-02-28T05:41:02;36.70;;;12.70;;
70558;SDS011;58108;48.094;11.838;2024-02-28T05:43:28;35.83;;;12.48;;
70558;SDS011;58108;48.094;11.838;2024-02-28T05:45:53;33.70;;;10.73;;
70558;SDS011;58108;48.094;11.838;2024-02-28T05:48:19;33.38;;;10.80;;
70558;SDS011;58108;48.094;11.838;2024-02-28T05:50:45;32.25;;;10.55;;
70558;SDS011;58108;48.094;11.838;2024-02-28T05:53:11;34.70;;;11.80;;
70558;SDS011;58108;48.094;11.838;2024-02-28T05:55:36;30.05;;;11.20;;
70558;SDS011;58108;48.094;11.838;2024-02-28T05:58:02;33.40;;;10.90;;
70558;SDS011;58108;48.094;11.838;2024-02-28T06:00:28;35.65;;;11.32;;
70558;SDS011;58108;48.094;11.838;2024-02-28T06:02:54;29.67;;;10.13;;
70558;SDS011;58108;48.094;11.838;2024-02-28T06:05:19;31.83;;;10.50;;
70558;SDS011;58108;48.094;11.838;2024-02-28T06:07:45;32.17;;;10.55;;
70558;SDS011;58108;48.094;11.838;2024-02-28T06:10:10;30.20;;;10.03;;
70558;SDS011;58108;48.094;11.838;2024-02-28T06:12:37;31.33;;;10.63;;
70558;SDS011;58108;48.094;11.838;2024-02-28T06:15:03;33.63;;;10.50;;
70558;SDS011;58108;48.094;11.838;2024-02-28T06:17:30;30.13;;;10.52;;
70558;SDS011;58108;48.094;11.838;2024-02-28T06:19:55;33.30;;;10.20;;
70558;SDS011;58108;48.094;11.838;2024-02-28T06:22:24;31.05;;;10.63;;
70558;SDS011;58108;48.094;11.838;2024-02-28T06:24:49;32.13;;;10.67;;
70558;SDS011;58108;48.094;11.838;2024-02-28T06:27:15;33.67;;;11.03;;
70558;SDS011;58108;48.094;11.838;2024-02-28T06:29:41;31.60;;;10.50;;
70558;SDS011;58108;48.094;11.838;2024-02-28T06:32:07;31.02;;;11.10;;
70558;SDS011;58108;48.094;11.838;2024-02-28T06:34:33;34.70;;;11.55;;
70558;SDS011;58108;48.094;11.838;2024-02-28T06:36:59;32.20;;;10.63;;
70558;SDS011;58108;48.094;11.838;2024-02-28T06:39:24;34.63;;;10.77;;
70558;SDS011;58108;48.094;11.838;2024-02-28T06:41:50;37.10;;;11.75;;
70558;SDS011;58108;48.094;11.838;2024-02-28T06:44:19;33.03;;;10.97;;
70558;SDS011;58108;48.094;11.838;2024-02-28T06:46:45;30.80;;;10.02;;
70558;SDS011;58108;48.094;11.838;2024-02-28T06:49:10;36.13;;;11.30;;
70558;SDS011;58108;48.094;11.838;2024-02-28T06:51:36;34.42;;;10.50;;
70558;SDS011;58108;48.094;11.838;2024-02-28T06:54:01;36.33;;;10.97;;
70558;SDS011;58108;48.094;11.838;2024-02-28T06:56:27;35.27;;;11.60;;
70558;SDS011;58108;48.094;11.838;2024-02-28T06:58:52;29.55;;;10.80;;
70558;SDS011;58108;48.094;11.838;2024-02-28T07:01:18;34.77;;;10.70;;
70558;SDS011;58108;48.094;11.838;2024-02-28T07:03:44;40.57;;;12.73;;
70558;SDS011;58108;48.094;11.838;2024-02-28T07:06:09;34.67;;;11.10;;
70558;SDS011;58108;48.094;11.838;2024-02-28T07:08:36;33.23;;;10.23;;
70558;SDS011;58108;48.094;11.838;2024-02-28T07:11:02;32.50;;;9.65;;
70558;SDS011;58108;48.094;11.838;2024-02-28T07:13:28;34.13;;;11.45;;
70558;SDS011;58108;48.094;11.838;2024-02-28T07:15:54;37.27;;;11.90;;
70558;SDS011;58108;48.094;11.838;2024-02-28T07:18:20;32.72;;;10.73;;
70558;SDS011;58108;48.094;11.838;2024-02-28T07:20:46;37.63;;;11.80;;
70558;SDS011;58108;48.094;11.838;2024-02-28T07:23:11;36.70;;;11.65;;
70558;SDS011;58108;48.094;11.838;2024-02-28T07:25:37;34.00;;;10.97;;
70558;SDS011;58108;48.094;11.838;2024-02-28T07:28:02;32.88;;;10.35;;
70558;SDS011;58108;48.094;11.838;2024-02-28T07:30:28;31.97;;;10.07;;
70558;SDS011;58108;48.094;11.838;2024-02-28T07:32:54;32.60;;;10.50;;
70558;SDS011;58108;48.094;11.838;2024-02-28T07:35:20;28.47;;;9.50;;
70558;SDS011;58108;48.094;11.838;2024-02-28T07:37:46;26.52;;;8.73;;
70558;SDS011;58108;48.094;11.838;2024-02-28T07:40:12;30.67;;;10.70;;
70558;SDS011;58108;48.094;11.838;2024-02-28T07:42:38;24.40;;;7.80;;
70558;SDS011;58108;48.094;11.838;2024-02-28T07:45:03;34.58;;;11.80;;
70558;SDS011;58108;48.094;11.838;2024-02-28T07:47:29;29.87;;;9.40;;
70558;SDS011;58108;48.094;11.838;2024-02-28T07:49:56;41.03;;;11.88;;
70558;SDS011;58108;48.094;11.838;2024-02-28T07:52:21;35.92;;;12.15;;
70558;SDS011;58108;48.094;11.838;2024-02-28T07:54:47;42.38;;;11.82;;
70558;SDS011;58108;48.094;11.838;2024-02-28T07:57:13;38.27;;;11.97;;
70558;SDS011;58108;48.094;11.838;2024-02-28T07:59:40;40.60;;;11.82;;
70558;SDS011;58108;48.094;11.838;2024-02-28T08:02:08;39.65;;;11.40;;
70558;SDS011;58108;48.094;11.838;2024-02-28T08:04:35;30.88;;;9.63;;
70558;SDS011;58108;48.094;11.838;2024-02-28T08:07:00;39.97;;;10.98;;
70558;SDS011;58108;48.094;11.838;2024-02-28T08:09:26;37.43;;;11.47;;
70558;SDS011;58108;48.094;11.838;2024-02-28T08:11:51;39.67;;;12.87;;
70558;SDS011;58108;48.094;11.838;2024-02-28T08:14:17;32.72;;;10.13;;
70558;SDS011;58108;48.094;11.838;2024-02-28T08:16:43;38.97;;;11.67;;
70558;SDS011;58108;48.094;11.838;2024-02-28T08:19:08;42.15;;;12.80;;
70558;SDS011;58108;48.094;11.838;2024-02-28T08:21:34;34.33;;;11.70;;
70558;SDS011;58108;48.094;11.838;2024-02-28T08:23:59;28.80;;;8.33;;
70558;SDS011;58108;48.094;11.838;2024-02-28T08:26:27;27.90;;;8.98;;
70558;SDS011;58108;48.094;11.838;2024-02-28T08:28:53;38.17;;;10.90;;
70558;SDS011;58108;48.094;11.838;2024-02-28T08:31:18;39.38;;;11.10;;
70558;SDS011;58108;48.094;11.838;2024-02-28T08:33:44;44.55;;;12.77;;
70558;SDS011;58108;48.094;11.838;2024-02-28T08:36:09;45.30;;;12.90;;
70558;SDS011;58108;48.094;11.838;2024-02-28T08:38:35;39.87;;;12.30;;
70558;SDS011;58108;48.094;11.838;2024-02-28T08:41:02;48.55;;;13.75;;
70558;SDS011;58108;48.094;11.838;2024-02-28T08:43:28;43.63;;;13.13;;
70558;SDS011;58108;48.094;11.838;2024-02-28T08:45:53;44.00;;;12.55;;
70558;SDS011;58108;48.094;11.838;2024-02-28T08:48:20;47.15;;;12.90;;
70558;SDS011;58108;48.094;11.838;2024-02-28T08:50:46;39.77;;;12.23;;
70558;SDS011;58108;48.094;11.838;2024-02-28T08:53:11;43.87;;;12.73;;
70558;SDS011;58108;48.094;11.838;2024-02-28T08:55:37;48.05;;;13.48;;
70558;SDS011;58108;48.094;11.838;2024-02-28T08:58:02;43.30;;;12.73;;
70558;SDS011;58108;48.094;11.838;2024-02-28T09:00:28;46.90;;;13.03;;
70558;SDS011;58108;48.094;11.838;2024-02-28T09:02:53;47.08;;;14.05;;
70558;SDS011;58108;48.094;11.838;2024-02-28T09:05:19;51.63;;;14.63;;
70558;SDS011;58108;48.094;11.838;2024-02-28T09:07:44;54.10;;;15.30;;
70558;SDS011;58108;48.094;11.838;2024-02-28T09:10:16;50.35;;;13.88;;
70558;SDS011;58108;48.094;11.838;2024-02-28T09:12:46;46.85;;;13.60;;
70558;SDS011;58108;48.094;11.838;2024-02-28T09:15:12;47.33;;;14.38;;
70558;SDS011;58108;48.094;11.838;2024-02-28T09:17:38;41.90;;;13.02;;
70558;SDS011;58108;48.094;11.838;2024-02-28T09:20:03;40.07;;;11.87;;
70558;SDS011;58108;48.094;11.838;2024-02-28T09:22:31;46.38;;;14.40;;
70558;SDS011;58108;48.094;11.838;2024-02-28T09:24:57;50.55;;;13.85;;
70558;SDS011;58108;48.094;11.838;2024-02-28T09:27:23;39.00;;;11.50;;
70558;SDS011;58108;48.094;11.838;2024-02-28T09:29:50;35.00;;;11.32;;
70558;SDS011;58108;48.094;11.838;2024-02-28T09:32:15;44.87;;;12.53;;
70558;SDS011;58108;48.094;11.838;2024-02-28T09:34:41;30.75;;;8.77;;
70558;SDS011;58108;48.094;11.838;2024-02-28T09:37:07;43.07;;;11.90;;
70558;SDS011;58108;48.094;11.838;2024-02-28T09:39:32;45.60;;;12.73;;
70558;SDS011;58108;48.094;11.838;2024-02-28T09:41:57;40.30;;;12.27;;
70558;SDS011;58108;48.094;11.838;2024-02-28T09:44:23;38.63;;;12.20;;
70558;SDS011;58108;48.094;11.838;2024-02-28T09:46:50;16.80;;;7.03;;
70558;SDS011;58108;48.094;11.838;2024-02-28T09:49:17;42.97;;;11.68;;
70558;SDS011;58108;48.094;11.838;2024-02-28T09:51:44;47.80;;;14.38;;
70558;SDS011;58108;48.094;11.838;2024-02-28T09:54:12;42.90;;;12.83;;
70558;SDS011;58108;48.094;11.838;2024-02-28T09:56:37;40.70;;;11.65;;
70558;SDS011;58108;48.094;11.838;2024-02-28T09:59:03;42.20;;;13.07;;
70558;SDS011;58108;48.094;11.838;2024-02-28T10:01:29;42.17;;;12.00;;
70558;SDS011;58108;48.094;11.838;2024-02-28T10:03:55;43.83;;;13.87;;
70558;SDS011;58108;48.094;11.838;2024-02-28T10:06:24;40.47;;;12.40;;
70558;SDS011;58108;48.094;11.838;2024-02-28T10:08:50;41.50;;;13.02;;
70558;SDS011;58108;48.094;11.838;2024-02-28T10:11:17;37.15;;;12.95;;
70558;SDS011;58108;48.094;11.838;2024-02-28T10:13:44;43.28;;;13.05;;
70558;SDS011;58108;48.094;11.838;2024-02-28T10:16:09;39.63;;;12.00;;
70558;SDS011;58108;48.094;11.838;2024-02-28T10:18:35;37.47;;;12.00;;
70558;SDS011;58108;48.094;11.838;2024-02-28T10:21:00;38.43;;;12.13;;
70558;SDS011;58108;48.094;11.838;2024-02-28T10:23:26;38.65;;;12.07;;
70558;SDS011;58108;48.094;11.838;2024-02-28T10:25:52;41.45;;;13.15;;
70558;SDS011;58108;48.094;11.838;2024-02-28T10:28:18;37.53;;;12.88;;
70558;SDS011;58108;48.094;11.838;2024-02-28T10:30:43;36.33;;;11.77;;
70558;SDS011;58108;48.094;11.838;2024-02-28T10:33:13;37.35;;;12.68;;
70558;SDS011;58108;48.094;11.838;2024-02-28T10:35:39;37.03;;;12.05;;
70558;SDS011;58108;48.094;11.838;2024-02-28T10:38:06;37.88;;;11.95;;
70558;SDS011;58108;48.094;11.838;2024-02-28T10:40:31;38.53;;;11.43;;
70558;SDS011;58108;48.094;11.838;2024-02-28T10:42:57;34.43;;;11.57;;
70558;SDS011;58108;48.094;11.838;2024-02-28T10:45:24;35.33;;;11.98;;
70558;SDS011;58108;48.094;11.838;2024-02-28T10:47:54;37.25;;;11.90;;
70558;SDS011;58108;48.094;11.838;2024-02-28T10:50:20;44.45;;;12.25;;
70558;SDS011;58108;48.094;11.838;2024-02-28T10:52:46;42.20;;;12.63;;
70558;SDS011;58108;48.094;11.838;2024-02-28T10:55:20;42.53;;;12.50;;
70558;SDS011;58108;48.094;11.838;2024-02-28T10:58:07;35.58;;;12.32;;
70558;SDS011;58108;48.094;11.838;2024-02-28T11:00:36;40.28;;;12.85;;
70558;SDS011;58108;48.094;11.838;2024-02-28T11:03:07;40.00;;;12.13;;
70558;SDS011;58108;48.094;11.838;2024-02-28T11:05:38;37.22;;;12.20;;
70558;SDS011;58108;48.094;11.838;2024-02-28T11:08:27;32.28;;;10.80;;
70558;SDS011;58108;48.094;11.838;2024-02-28T11:10:55;36.25;;;11.50;;
70558;SDS011;58108;48.094;11.838;2024-02-28T11:13:24;32.67;;;11.23;;
70558;SDS011;58108;48.094;11.838;2024-02-28T11:15:51;40.07;;;12.63;;
70558;SDS011;58108;48.094;11.838;2024-02-28T11:18:17;39.95;;;12.15;;
70558;SDS011;58108;48.094;11.838;2024-02-28T11:20:43;36.67;;;11.82;;
70558;SDS011;58108;48.094;11.838;2024-02-28T11:23:11;37.53;;;12.02;;
70558;SDS011;58108;48.094;11.838;2024-02-28T11:25:37;36.42;;;12.27;;
70558;SDS011;58108;48.094;11.838;2024-02-28T11:28:03;40.80;;;12.60;;
70558;SDS011;58108;48.094;11.838;2024-02-28T11:30:29;40.83;;;12.65;;
70558;SDS011;58108;48.094;11.838;2024-02-28T11:32:55;36.60;;;11.75;;
70558;SDS011;58108;48.094;11.838;2024-02-28T11:35:23;38.88;;;12.20;;
70558;SDS011;58108;48.094;11.838;2024-02-28T11:37:49;38.10;;;11.63;;
70558;SDS011;58108;48.094;11.838;2024-02-28T11:40:15;37.42;;;12.68;;
70558;SDS011;58108;48.094;11.838;2024-02-28T11:42:41;35.27;;;11.37;;
70558;SDS011;58108;48.094;11.838;2024-02-28T11:45:09;40.73;;;11.77;;
70558;SDS011;58108;48.094;11.838;2024-02-28T11:47:35;34.25;;;10.52;;
70558;SDS011;58108;48.094;11.838;2024-02-28T11:50:01;34.67;;;11.13;;
70558;SDS011;58108;48.094;11.838;2024-02-28T11:52:30;33.28;;;12.52;;
70558;SDS011;58108;48.094;11.838;2024-02-28T11:54:55;33.97;;;12.40;;
70558;SDS011;58108;48.094;11.838;2024-02-28T11:57:21;35.73;;;12.20;;
70558;SDS011;58108;48.094;11.838;2024-02-28T11:59:47;37.30;;;11.65;;
70558;SDS011;58108;48.094;11.838;2024-02-28T12:02:14;38.22;;;12.10;;
70558;SDS011;58108;48.094;11.838;2024-02-28T12:04:41;36.38;;;11.93;;
70558;SDS011;58108;48.094;11.838;2024-02-28T12:07:07;35.33;;;11.60;;
70558;SDS011;58108;48.094;11.838;2024-02-28T12:09:34;37.47;;;12.10;;
70558;SDS011;58108;48.094;11.838;2024-02-28T12:12:00;34.88;;;12.13;;
70558;SDS011;58108;48.094;11.838;2024-02-28T12:14:26;34.50;;;11.45;;
70558;SDS011;58108;48.094;11.838;2024-02-28T12:16:52;34.67;;;11.60;;
70558;SDS011;58108;48.094;11.838;2024-02-28T12:19:18;37.03;;;11.90;;
70558;SDS011;58108;48.094;11.838;2024-02-28T12:21:45;34.03;;;11.30;;
70558;SDS011;58108;48.094;11.838;2024-02-28T12:24:11;39.13;;;11.52;;
70558;SDS011;58108;48.094;11.838;2024-02-28T12:26:38;35.97;;;10.55;;
70558;SDS011;58108;48.094;11.838;2024-02-28T12:29:04;28.53;;;10.27;;
70558;SDS011;58108;48.094;11.838;2024-02-28T12:31:29;37.03;;;13.15;;
70558;SDS011;58108;48.094;11.838;2024-02-28T12:33:55;39.67;;;12.10;;
70558;SDS011;58108;48.094;11.838;2024-02-28T12:36:21;36.92;;;12.70;;
70558;SDS011;58108;48.094;11.838;2024-02-28T12:38:46;37.07;;;12.13;;
70558;SDS011;58108;48.094;11.838;2024-02-28T12:41:12;32.55;;;12.05;;
70558;SDS011;58108;48.094;11.838;2024-02-28T12:43:38;34.15;;;11.60;;
70558;SDS011;58108;48.094;11.838;2024-02-28T12:46:04;35.93;;;11.23;;
70558;SDS011;58108;48.094;11.838;2024-02-28T12:48:31;34.78;;;11.32;;
70558;SDS011;58108;48.094;11.838;2024-02-28T12:51:02;28.10;;;9.52;;
70558;SDS011;58108;48.094;11.838;2024-02-28T12:53:28;33.20;;;11.20;;
70558;SDS011;58108;48.094;11.838;2024-02-28T12:55:53;28.27;;;9.20;;
70558;SDS011;58108;48.094;11.838;2024-02-28T12:58:19;31.43;;;11.40;;
70558;SDS011;58108;48.094;11.838;2024-02-28T13:00:44;31.03;;;10.47;;
70558;SDS011;58108;48.094;11.838;2024-02-28T13:03:10;33.65;;;11.25;;
70558;SDS011;58108;48.094;11.838;2024-02-28T13:05:35;36.30;;;11.73;;
70558;SDS011;58108;48.094;11.838;2024-02-28T13:08:01;31.00;;;11.13;;
70558;SDS011;58108;48.094;11.838;2024-02-28T13:10:26;33.38;;;10.70;;
70558;SDS011;58108;48.094;11.838;2024-02-28T13:12:52;33.67;;;11.20;;
70558;SDS011;58108;48.094;11.838;2024-02-28T13:15:18;35.03;;;10.55;;
70558;SDS011;58108;48.094;11.838;2024-02-28T13:17:43;36.40;;;12.47;;
70558;SDS011;58108;48.094;11.838;2024-02-28T13:20:09;38.43;;;12.23;;
70558;SDS011;58108;48.094;11.838;2024-02-28T13:22:35;22.20;;;7.43;;
70558;SDS011;58108;48.094;11.838;2024-02-28T13:25:00;32.83;;;10.93;;
70558;SDS011;58108;48.094;11.838;2024-02-28T13:27:26;34.60;;;10.87;;
70558;SDS011;58108;48.094;11.838;2024-02-28T13:29:52;34.25;;;12.80;;
70558;SDS011;58108;48.094;11.838;2024-02-28T13:32:17;35.97;;;12.03;;
70558;SDS011;58108;48.094;11.838;2024-02-28T13:34:43;32.88;;;11.55;;
70558;SDS011;58108;48.094;11.838;2024-02-28T13:37:08;29.57;;;9.93;;
70558;SDS011;58108;48.094;11.838;2024-02-28T13:39:34;27.13;;;9.23;;
70558;SDS011;58108;48.094;11.838;2024-02-28T13:42:00;34.13;;;10.98;;
70558;SDS011;58108;48.094;11.838;2024-02-28T13:44:25;28.48;;;9.65;;
70558;SDS011;58108;48.094;11.838;2024-02-28T13:46:52;29.53;;;9.53;;
70558;SDS011;58108;48.094;11.838;2024-02-28T13:49:18;30.02;;;10.95;;
70558;SDS011;58108;48.094;11.838;2024-02-28T13:51:44;28.45;;;9.52;;
70558;SDS011;58108;48.094;11.838;2024-02-28T13:54:10;30.48;;;9.23;;
70558;SDS011;58108;48.094;11.838;2024-02-28T13:56:35;31.93;;;10.23;;
70558;SDS011;58108;48.094;11.838;2024-02-28T13:59:01;29.98;;;10.30;;
70558;SDS011;58108;48.094;11.838;2024-02-28T14:01:26;31.67;;;9.57;;
70558;SDS011;58108;48.094;11.838;2024-02-28T14:03:53;27.60;;;7.43;;
70558;SDS011;58108;48.094;11.838;2024-02-28T14:06:19;33.77;;;11.50;;
70558;SDS011;58108;48.094;11.838;2024-02-28T14:08:45;28.13;;;9.88;;